Independence, OR (97351)

10:58 PM PDT on October 22, 2014 (GMT -0700)
Monmouth, Oregon | Change Station
CLOSE
Current Station
Personal Weather Station
Location: Monmouth, OR
Elevation: 184 ft
Nearby Weather Stations
Active Advisory: Special Statement Active Notice: Record Report

Elev 184 ft 44.86 °N, 123.23 °W | Updated 9 minutes ago

Overcast
Overcast
53.8 °F
Feels Like 53.8 °F
N
1.6
Wind Variable Wind from SSW

Today
High -- | Low -- °F
--% Chance of Precip.
Yesterday
High -- | Low -- °F
Precip. -- in
7:37 AM 6:16 PM
Waning Crescent, 0% visible
Pressure 29.78 in
Visibility 8.0 miles
Clouds Few 900 ft
Scattered Clouds 2200 ft
Overcast 3500 ft
Dew Point 54 °F
Humidity 99%
Rainfall 1.39 in
Snow Depth Not available.
UV 0 out of 12
Pollen .30 out of 12
Air Quality Not available.
Flu Activity Sporadic
SPECI KSLE 230514Z AUTO 22008KT 8SM -RA FEW009 SCT022 OVC035 13/11 A2978 RMK AO2 P0002 T01330111

More Conditions Fewer Conditions

Pressure 29.78 in
Visibility 8.0 miles
Clouds Few 900 ft
Scattered Clouds 2200 ft
Overcast 3500 ft
Dew Point 54 °F
Humidity 99%
Rainfall 1.39 in
Snow Depth Not available.
UV 0 out of 12
Pollen .30 out of 12
Air Quality Not available.
Flu Activity Sporadic
SPECI KSLE 230514Z AUTO 22008KT 8SM -RA FEW009 SCT022 OVC035 13/11 A2978 RMK AO2 P0002 T01330111

More Conditions Fewer Conditions

10-Day Weather Forecast

Almanac

Astronomy

Oct. 22, 2014 Rise Set
Actual Time 7:37 AM PDT 6:16 PM PDT
Civil Twilight 7:07 AM PDT 6:45 PM PDT
Nautical Twilight 6:33 AM PDT 7:20 PM PDT
Astronomical Twilight 5:59 AM PDT 7:53 PM PDT
Moon 6:21 AM PDT (10/22) 5:47 PM PDT (10/22)
Length of Visible Light 11h 38m
Length of Day
10h 38m
Tomorrow will be 2m 57s shorter.
Waning Crescent, 0% of the Moon is Illuminated
Oct 23
Waning Crescent
Oct 23
New
Oct 30
First Quarter
Nov 6
Full
Nov 14
Last Quarter

Yesterday's Extremes

State Highs State Lows

Community

WunderPhotos

Upload Photos

1,764,188 photos uploaded!

Nearby

Snow Depth

Station Depth Elevation
Saddle Mountain 3 in 3250 ft
Daly Lake 0 in 3600 ft
Jump Off Joe 0 in 3500 ft
Peavine Ridge 0 in 3500 ft
Hogg Pass 1 in 4760 ft

Earthquake Activity

City Distance Mag. Time & Date
No recent earthquake activity has been reported nearby.
Minimum magnitude displayed is 2.5.

Coastal Water Temperatures

Place Temperature
No Stations Reporting

Nearby Weather Stations